createdAt,value
2022-09-26T00:01:08.661Z,67.99
2022-09-26T00:03:36.119Z,68.36
2022-09-26T00:06:04.853Z,68.12
2022-09-26T00:08:31.898Z,68.28
2022-09-26T00:11:01.062Z,68.31
2022-09-26T00:13:29.486Z,68.19
2022-09-26T00:15:56.697Z,68.32
2022-09-26T00:18:24.572Z,68.29
2022-09-26T00:20:51.925Z,68.28
2022-09-26T00:23:18.751Z,68.30
2022-09-26T00:25:51.814Z,68.36
2022-09-26T00:28:19.372Z,68.32
2022-09-26T00:34:58.165Z,68.39
2022-09-26T00:37:24.922Z,68.28
2022-09-26T00:44:34.571Z,68.61
2022-09-26T00:47:01.856Z,68.58
2022-09-26T00:49:32.658Z,68.50
2022-09-26T00:52:06.577Z,68.54
2022-09-26T00:54:36.257Z,68.58
2022-09-26T00:57:10.898Z,68.50
2022-09-26T00:59:41.712Z,68.56
2022-09-26T01:02:09.374Z,68.47
2022-09-26T01:04:38.912Z,68.43
2022-09-26T01:07:10.456Z,68.51
2022-09-26T01:09:39.257Z,68.56
2022-09-26T01:12:06.843Z,68.47
2022-09-26T01:14:34.484Z,68.53
2022-09-26T01:17:02.037Z,68.44
2022-09-26T01:19:40.683Z,68.49
2022-09-26T01:22:32.353Z,68.33
2022-09-26T01:25:14.051Z,68.50
2022-09-26T01:28:18.314Z,68.50
2022-09-26T01:31:01.896Z,68.36
2022-09-26T01:33:47.243Z,68.48
2022-09-26T01:36:22.799Z,68.62
2022-09-26T01:39:00.316Z,68.56
2022-09-26T01:41:32.941Z,68.72
2022-09-26T01:44:25.259Z,68.64
2022-09-26T01:46:57.102Z,68.65
2022-09-26T01:49:54.006Z,68.52
2022-09-26T01:53:10.096Z,68.65
2022-09-26T01:55:42.157Z,68.62
2022-09-26T01:58:21.387Z,68.70
2022-09-26T02:00:50.000Z,68.94
2022-09-26T02:03:23.162Z,69.01
2022-09-26T02:05:57.674Z,69.04
2022-09-26T02:08:44.221Z,69.03
2022-09-26T02:11:17.266Z,68.99
2022-09-26T02:14:03.714Z,69.18
2022-09-26T02:16:46.202Z,69.20
2022-09-26T02:19:26.530Z,69.24
2022-09-26T02:21:53.963Z,69.42
2022-09-26T02:24:22.749Z,69.43
2022-09-26T02:26:50.934Z,69.48
2022-09-26T02:29:20.575Z,69.37
2022-09-26T02:32:17.584Z,69.35
2022-09-26T02:34:47.006Z,68.93
2022-09-26T02:37:15.823Z,69.61
2022-09-26T02:39:44.762Z,69.39
2022-09-26T02:42:37.993Z,69.55
2022-09-26T02:45:23.134Z,69.52
2022-09-26T02:48:19.897Z,69.66
2022-09-26T02:51:16.440Z,69.60
2022-09-26T02:53:50.100Z,69.68
2022-09-26T02:56:26.802Z,69.89
2022-09-26T02:59:05.944Z,69.62
2022-09-26T03:01:43.655Z,69.84
2022-09-26T03:04:26.291Z,69.77
2022-09-26T03:06:57.938Z,69.75
2022-09-26T03:09:27.352Z,70.10
2022-09-26T03:11:55.274Z,69.82
2022-09-26T03:14:21.825Z,69.66
2022-09-26T03:16:51.049Z,69.89
2022-09-26T03:19:27.330Z,69.64
2022-09-26T03:21:54.480Z,69.81
2022-09-26T03:24:22.919Z,69.92
2022-09-26T03:26:50.601Z,69.77
2022-09-26T03:29:19.876Z,69.83
2022-09-26T03:31:46.892Z,69.85
2022-09-26T03:34:13.522Z,69.73
2022-09-26T03:36:40.111Z,69.74
2022-09-26T03:39:09.912Z,69.69
2022-09-26T03:41:40.481Z,69.59
2022-09-26T03:44:15.816Z,69.78
2022-09-26T03:47:00.736Z,69.51
2022-09-26T03:49:27.349Z,69.68
2022-09-26T03:51:53.828Z,69.58
2022-09-26T03:54:20.457Z,69.76
2022-09-26T03:56:48.348Z,69.33
2022-09-26T03:59:16.671Z,69.74
2022-09-26T04:01:44.989Z,69.78
2022-09-26T04:04:15.196Z,69.48
2022-09-26T04:06:44.794Z,69.60
2022-09-26T04:09:16.609Z,69.66
2022-09-26T04:11:47.068Z,69.73
2022-09-26T04:14:13.669Z,69.81
2022-09-26T04:16:41.306Z,69.61
2022-09-26T04:19:26.654Z,69.67
2022-09-26T04:21:53.245Z,69.69
2022-09-26T04:24:21.420Z,69.61
2022-09-26T04:26:48.145Z,69.56
2022-09-26T04:29:15.159Z,69.73
2022-09-26T04:32:04.915Z,69.63
2022-09-26T04:34:42.275Z,69.71
2022-09-26T04:37:10.181Z,69.80
2022-09-26T04:39:36.956Z,69.87
2022-09-26T04:42:03.673Z,69.80
2022-09-26T04:44:30.361Z,69.71
2022-09-26T04:46:58.165Z,69.81
2022-09-26T04:49:36.959Z,69.84
2022-09-26T04:52:04.500Z,69.72
2022-09-26T04:54:31.266Z,69.73
2022-09-26T04:57:00.380Z,69.83
2022-09-26T04:59:26.936Z,69.89
2022-09-26T05:01:59.074Z,69.80
2022-09-26T05:04:34.789Z,69.93
2022-09-26T05:07:01.559Z,69.87
2022-09-26T05:09:35.519Z,69.93
2022-09-26T05:12:06.287Z,69.75
2022-09-26T05:14:35.337Z,69.87
2022-09-26T05:17:03.792Z,69.96
2022-09-26T05:19:30.526Z,69.92
2022-09-26T05:22:23.269Z,69.82
2022-09-26T05:25:08.581Z,69.76
2022-09-26T05:27:36.575Z,69.77
2022-09-26T05:30:03.963Z,69.69
2022-09-26T05:32:30.633Z,69.78
2022-09-26T05:34:57.642Z,69.71
2022-09-26T05:37:26.397Z,69.77
2022-09-26T05:40:12.275Z,69.85
2022-09-26T05:42:44.264Z,69.81
2022-09-26T05:45:11.130Z,69.79
2022-09-26T05:47:37.720Z,69.85
2022-09-26T05:50:09.982Z,69.88
2022-09-26T05:52:38.378Z,69.74
2022-09-26T05:55:05.843Z,69.68
2022-09-26T05:57:52.365Z,70.06
2022-09-26T06:00:20.946Z,69.85
2022-09-26T06:02:55.649Z,70.00
2022-09-26T06:05:42.155Z,70.13
2022-09-26T06:08:13.135Z,70.20
2022-09-26T06:10:45.528Z,70.12
2022-09-26T06:13:15.212Z,70.19
2022-09-26T06:15:48.458Z,70.20
2022-09-26T06:18:15.038Z,70.08
2022-09-26T06:20:41.750Z,70.13
2022-09-26T06:23:08.257Z,70.11
2022-09-26T06:25:37.464Z,70.08
2022-09-26T06:28:04.146Z,70.46
2022-09-26T06:30:31.003Z,70.29
2022-09-26T06:33:09.926Z,70.33
2022-09-26T06:36:04.682Z,70.45
2022-09-26T06:38:36.945Z,70.66
2022-09-26T06:41:07.269Z,70.72
2022-09-26T06:43:34.524Z,70.47
2022-09-26T06:46:21.039Z,70.56
2022-09-26T06:49:10.599Z,70.49
2022-09-26T06:51:42.740Z,70.41
2022-09-26T06:54:10.181Z,70.38
2022-09-26T06:56:37.482Z,70.49
2022-09-26T06:59:04.030Z,70.43
2022-09-26T07:01:33.236Z,70.46
2022-09-26T07:04:09.290Z,70.48
2022-09-26T07:06:58.273Z,70.40
2022-09-26T07:09:25.737Z,70.51
2022-09-26T07:12:14.601Z,70.26
2022-09-26T07:14:43.266Z,70.60
2022-09-26T07:17:27.191Z,70.45
2022-09-26T07:20:20.357Z,70.35
2022-09-26T07:23:00.694Z,70.34
2022-09-26T07:25:27.258Z,70.39
2022-09-26T07:27:54.172Z,70.35
2022-09-26T07:30:28.454Z,70.22
2022-09-26T07:33:05.398Z,70.35
2022-09-26T07:36:01.908Z,70.43
2022-09-26T07:38:31.094Z,70.43
2022-09-26T07:41:00.550Z,70.35
2022-09-26T07:43:53.649Z,70.35
2022-09-26T07:46:32.809Z,70.21
2022-09-26T07:49:18.725Z,70.30
2022-09-26T07:52:09.035Z,70.46
2022-09-26T07:55:55.729Z,70.36
2022-09-26T07:58:46.348Z,70.54
2022-09-26T08:01:32.198Z,70.41
2022-09-26T08:03:58.828Z,70.34
2022-09-26T08:06:33.210Z,70.37
2022-09-26T08:08:59.806Z,70.36
2022-09-26T08:11:45.138Z,70.31
2022-09-26T08:14:31.559Z,70.10
2022-09-26T08:17:17.264Z,70.30
2022-09-26T08:19:43.823Z,70.50
2022-09-26T08:22:11.248Z,70.43
2022-09-26T08:24:39.005Z,70.50
2022-09-26T08:27:23.161Z,70.47
2022-09-26T08:29:51.514Z,70.47
2022-09-26T08:32:20.129Z,70.44
2022-09-26T08:34:47.606Z,70.42
2022-09-26T08:37:37.093Z,70.60
2022-09-26T08:40:32.389Z,70.48
2022-09-26T08:43:26.029Z,70.32
2022-09-26T08:46:47.781Z,70.31
2022-09-26T08:49:39.900Z,70.51
2022-09-26T08:52:20.794Z,70.40
2022-09-26T08:54:49.983Z,70.49
2022-09-26T08:57:34.006Z,70.24
2022-09-26T09:00:15.182Z,70.35
2022-09-26T09:03:04.042Z,70.28
2022-09-26T09:05:39.111Z,70.13
2022-09-26T09:08:13.875Z,70.35
2022-09-26T09:11:14.606Z,70.24
2022-09-26T09:14:03.054Z,70.23
2022-09-26T09:17:04.589Z,70.09
2022-09-26T09:20:23.008Z,70.02
2022-09-26T09:23:29.786Z,70.09
2022-09-26T09:29:22.346Z,70.11
2022-09-26T09:32:12.380Z,70.13
2022-09-26T09:35:13.937Z,70.00
2022-09-26T09:37:59.891Z,70.11
2022-09-26T09:41:02.883Z,70.19
2022-09-26T09:43:40.345Z,70.03
2022-09-26T09:46:20.234Z,70.20
2022-09-26T09:48:48.086Z,70.24
2022-09-26T09:51:39.596Z,70.11
2022-09-26T09:54:34.105Z,70.23
2022-09-26T09:57:28.965Z,70.26
2022-09-26T10:00:02.893Z,70.26
2022-09-26T10:03:11.269Z,70.17
2022-09-26T10:05:45.210Z,70.22
2022-09-26T10:08:22.561Z,70.15
2022-09-26T10:11:26.048Z,70.01
2022-09-26T10:14:01.250Z,69.90
2022-09-26T10:17:09.897Z,69.59
2022-09-26T10:19:56.786Z,69.83
2022-09-26T10:22:37.328Z,69.71
2022-09-26T10:25:17.567Z,69.61
2022-09-26T10:27:51.601Z,69.60
2022-09-26T10:30:21.043Z,69.55
2022-09-26T10:32:57.250Z,69.24
2022-09-26T10:35:43.121Z,69.32
2022-09-26T10:38:27.251Z,69.00
2022-09-26T10:41:22.965Z,69.13
2022-09-26T10:43:55.847Z,69.01
2022-09-26T10:46:51.459Z,68.96
2022-09-26T10:50:02.382Z,68.32
2022-09-26T10:53:08.363Z,68.46
2022-09-26T10:55:40.669Z,68.28
2022-09-26T10:58:14.393Z,68.08
2022-09-26T11:00:51.738Z,67.96
2022-09-26T11:03:34.328Z,68.02
2022-09-26T11:06:35.709Z,67.75
2022-09-26T11:09:20.471Z,67.68
2022-09-26T11:12:25.473Z,67.18
2022-09-26T11:15:12.636Z,67.39
2022-09-26T11:17:47.452Z,67.31
2022-09-26T11:20:17.911Z,67.30
2022-09-26T11:22:53.229Z,66.77
2022-09-26T11:25:29.249Z,66.96
2022-09-26T11:28:10.692Z,66.75
2022-09-26T11:31:37.855Z,66.61
2022-09-26T11:34:28.765Z,66.61
2022-09-26T11:37:30.091Z,66.38
2022-09-26T11:40:12.323Z,66.42
2022-09-26T11:43:02.091Z,66.32
2022-09-26T11:45:39.952Z,66.19
2022-09-26T11:49:10.628Z,66.28
2022-09-26T11:52:14.523Z,66.19
2022-09-26T11:54:46.967Z,66.02
2022-09-26T11:57:37.217Z,65.97
2022-09-26T12:00:24.414Z,66.08
2022-09-26T12:03:31.323Z,65.71
2022-09-26T12:06:33.639Z,66.10
2022-09-26T12:09:12.038Z,66.14
2022-09-26T12:11:56.729Z,65.83
2022-09-26T12:14:36.736Z,65.95
2022-09-26T12:17:15.364Z,66.21
2022-09-26T12:19:55.750Z,66.00
2022-09-26T12:22:36.011Z,65.81
2022-09-26T12:25:32.482Z,66.11
2022-09-26T12:28:31.764Z,65.92
2022-09-26T12:31:01.273Z,65.50
2022-09-26T12:34:00.276Z,65.67
2022-09-26T12:36:51.454Z,65.78
2022-09-26T12:39:32.885Z,65.80
2022-09-26T12:42:17.580Z,65.78
2022-09-26T12:45:30.314Z,65.79
2022-09-26T12:48:30.101Z,65.72
2022-09-26T12:51:16.277Z,65.75
2022-09-26T12:54:05.750Z,65.89
2022-09-26T12:56:33.952Z,65.73
2022-09-26T12:59:15.552Z,65.27
2022-09-26T13:02:00.541Z,64.93
2022-09-26T13:04:44.434Z,64.87
2022-09-26T13:07:23.153Z,64.85
2022-09-26T13:10:15.247Z,64.92
2022-09-26T13:13:10.093Z,64.51
2022-09-26T13:15:55.429Z,64.63
2022-09-26T13:18:33.145Z,64.43
2022-09-26T13:21:09.024Z,64.92
2022-09-26T13:23:41.014Z,65.01
2022-09-26T13:26:19.702Z,65.11
2022-09-26T13:29:15.534Z,65.04
2022-09-26T13:31:58.738Z,65.44
2022-09-26T13:34:28.233Z,65.48
2022-09-26T13:36:57.377Z,65.52
2022-09-26T13:39:34.097Z,65.44
2022-09-26T13:42:07.326Z,65.22
2022-09-26T13:44:53.656Z,65.39
2022-09-26T13:47:39.669Z,65.14
2022-09-26T13:50:27.335Z,65.27
2022-09-26T13:53:05.689Z,65.03
2022-09-26T13:55:33.104Z,65.30
2022-09-26T13:58:07.342Z,65.00
2022-09-26T14:00:40.872Z,65.10
2022-09-26T14:03:10.344Z,65.05
2022-09-26T14:05:46.596Z,65.12
2022-09-26T14:08:44.314Z,65.17
2022-09-26T14:11:19.930Z,65.29
2022-09-26T14:13:47.831Z,65.05
2022-09-26T14:16:36.670Z,65.30
2022-09-26T14:19:24.205Z,65.18
2022-09-26T14:22:25.812Z,65.20
2022-09-26T14:24:58.294Z,65.25
2022-09-26T14:27:27.999Z,65.36
2022-09-26T14:30:29.625Z,65.39
2022-09-26T14:33:05.155Z,65.42
2022-09-26T14:35:34.155Z,65.43
2022-09-26T14:38:12.580Z,65.66
2022-09-26T14:40:50.945Z,65.55
2022-09-26T14:43:19.033Z,65.68
2022-09-26T14:45:49.627Z,65.89
2022-09-26T14:48:34.327Z,65.83
2022-09-26T14:51:15.771Z,65.94
2022-09-26T14:53:54.874Z,65.77
2022-09-26T14:56:27.265Z,65.84
2022-09-26T14:59:13.592Z,65.85
2022-09-26T15:01:41.391Z,66.00
2022-09-26T15:04:21.850Z,66.07
2022-09-26T15:06:55.280Z,66.09
2022-09-26T15:09:25.905Z,66.20
2022-09-26T15:11:58.285Z,66.05
2022-09-26T15:14:40.698Z,66.17
2022-09-26T15:17:17.836Z,66.37
2022-09-26T15:19:52.230Z,66.21
2022-09-26T15:22:22.370Z,66.21
2022-09-26T15:24:52.968Z,66.39
2022-09-26T15:27:27.111Z,66.43
2022-09-26T15:30:00.563Z,66.42
2022-09-26T15:32:30.100Z,66.39
2022-09-26T15:34:57.467Z,66.45
2022-09-26T15:37:33.260Z,66.40
2022-09-26T15:40:18.447Z,66.45
2022-09-26T15:43:02.786Z,66.18
2022-09-26T15:45:50.534Z,66.40
2022-09-26T15:48:19.760Z,66.39
2022-09-26T15:50:51.332Z,66.32
2022-09-26T15:53:28.879Z,66.31
2022-09-26T15:56:03.755Z,66.35
2022-09-26T15:58:34.096Z,66.47
2022-09-26T16:01:01.447Z,66.11
2022-09-26T16:03:27.966Z,66.30
2022-09-26T16:05:54.973Z,66.29
2022-09-26T16:08:24.974Z,66.15
2022-09-26T16:11:00.146Z,66.59
2022-09-26T16:13:33.089Z,66.26
2022-09-26T16:16:06.444Z,66.32
2022-09-26T16:18:38.558Z,66.18
2022-09-26T16:21:21.722Z,66.38
2022-09-26T16:23:56.805Z,66.38
2022-09-26T16:26:39.165Z,66.24
2022-09-26T16:29:06.444Z,66.35
2022-09-26T16:31:45.303Z,66.27
2022-09-26T16:34:23.238Z,66.25
2022-09-26T16:36:50.750Z,66.39
2022-09-26T16:39:24.856Z,66.37
2022-09-26T16:42:01.688Z,66.48
2022-09-26T16:44:35.363Z,66.44
2022-09-26T16:47:06.126Z,66.56
2022-09-26T16:49:45.664Z,66.51
2022-09-26T16:52:36.454Z,66.50
2022-09-26T16:55:08.572Z,66.70
2022-09-26T16:57:46.341Z,66.46
2022-09-26T17:00:41.886Z,66.54
2022-09-26T17:03:25.766Z,66.47
2022-09-26T17:05:55.630Z,66.54
2022-09-26T17:08:22.886Z,66.61
2022-09-26T17:10:49.564Z,66.65
2022-09-26T17:13:22.766Z,66.54
2022-09-26T17:15:52.926Z,66.45
2022-09-26T17:18:21.191Z,66.40
2022-09-26T17:20:49.271Z,66.41
2022-09-26T17:23:39.309Z,66.39
2022-09-26T17:26:06.852Z,66.38
2022-09-26T17:28:42.631Z,66.36
2022-09-26T17:31:19.704Z,66.38
2022-09-26T17:33:49.636Z,66.42
2022-09-26T17:36:24.676Z,66.33
2022-09-26T17:38:51.625Z,66.35
2022-09-26T17:41:18.308Z,66.34
2022-09-26T17:43:45.134Z,66.51
2022-09-26T17:46:16.378Z,66.53
2022-09-26T17:48:44.392Z,66.40
2022-09-26T17:51:14.659Z,66.38
2022-09-26T17:53:50.533Z,66.31
2022-09-26T17:56:18.119Z,66.38
2022-09-26T17:58:45.711Z,66.44
2022-09-26T18:01:22.456Z,66.45
2022-09-26T18:03:51.735Z,66.60
2022-09-26T18:06:22.509Z,66.76
2022-09-26T18:08:49.339Z,66.81
2022-09-26T18:11:18.634Z,66.58
2022-09-26T18:13:55.286Z,66.66
2022-09-26T18:16:22.790Z,66.74
2022-09-26T18:18:51.050Z,66.50
2022-09-26T18:21:18.773Z,66.72
2022-09-26T18:23:51.966Z,66.72
2022-09-26T18:26:23.500Z,66.81
2022-09-26T18:28:50.821Z,66.67
2022-09-26T18:31:24.264Z,66.63
2022-09-26T18:33:50.789Z,66.76
2022-09-26T18:36:17.387Z,66.72
2022-09-26T18:38:43.891Z,66.86
2022-09-26T18:41:11.503Z,66.78
2022-09-26T18:43:42.279Z,66.74
2022-09-26T18:46:13.432Z,66.72
2022-09-26T18:48:41.683Z,66.64
2022-09-26T18:51:10.367Z,66.71
2022-09-26T18:53:37.663Z,66.61
2022-09-26T18:56:27.491Z,66.66
2022-09-26T18:58:54.622Z,66.75
2022-09-26T19:01:29.630Z,66.63
2022-09-26T19:03:59.883Z,66.77
2022-09-26T19:06:36.535Z,66.72
2022-09-26T19:09:06.723Z,66.71
2022-09-26T19:11:35.027Z,66.72
2022-09-26T19:14:14.850Z,66.58
2022-09-26T19:16:46.385Z,66.74
2022-09-26T19:19:13.705Z,66.68
2022-09-26T19:21:49.019Z,66.81
2022-09-26T19:24:35.717Z,66.85
2022-09-26T19:27:06.686Z,67.04
2022-09-26T19:29:42.871Z,66.83
2022-09-26T19:32:29.154Z,66.94
2022-09-26T19:35:00.623Z,66.67
2022-09-26T19:37:28.007Z,66.94
2022-09-26T19:39:56.303Z,66.77
2022-09-26T19:42:22.791Z,66.76
2022-09-26T19:44:50.947Z,66.82
2022-09-26T19:47:19.919Z,66.93
2022-09-26T19:49:49.363Z,67.14
2022-09-26T19:52:17.861Z,66.72
2022-09-26T19:54:45.389Z,66.94
2022-09-26T19:57:22.539Z,66.58
2022-09-26T19:59:49.918Z,66.82
2022-09-26T20:02:24.780Z,66.82
2022-09-26T20:04:51.838Z,66.71
2022-09-26T20:07:19.603Z,66.86
2022-09-26T20:09:46.593Z,66.89
2022-09-26T20:12:13.970Z,66.92
2022-09-26T20:14:40.675Z,67.00
2022-09-26T20:17:26.905Z,66.88
2022-09-26T20:19:58.547Z,67.03
2022-09-26T20:22:25.461Z,67.03
2022-09-26T20:24:55.323Z,67.00
2022-09-26T20:27:25.478Z,67.00
2022-09-26T20:30:10.549Z,67.06
2022-09-26T20:32:37.439Z,67.07
2022-09-26T20:35:04.906Z,67.10
2022-09-26T20:37:39.786Z,66.99
2022-09-26T20:40:14.784Z,67.04
2022-09-26T20:42:42.039Z,66.98
2022-09-26T20:45:16.142Z,67.19
2022-09-26T20:47:43.123Z,67.07
2022-09-26T20:50:14.843Z,67.05
2022-09-26T20:52:42.643Z,67.18
2022-09-26T20:55:18.025Z,67.07
2022-09-26T20:57:45.326Z,67.15
2022-09-26T21:00:16.810Z,67.19
2022-09-26T21:02:44.518Z,66.84
2022-09-26T21:05:24.484Z,67.06
2022-09-26T21:07:52.281Z,67.34
2022-09-26T21:10:33.869Z,67.26
2022-09-26T21:13:01.082Z,67.22
2022-09-26T21:15:32.572Z,67.25
2022-09-26T21:18:01.282Z,67.26
2022-09-26T21:20:32.246Z,67.33
2022-09-26T21:23:19.217Z,67.23
2022-09-26T21:25:45.773Z,67.33
2022-09-26T21:28:26.594Z,67.29
2022-09-26T21:30:56.844Z,67.29
2022-09-26T21:33:23.657Z,67.50
2022-09-26T21:35:50.871Z,67.57
2022-09-26T21:38:19.391Z,67.43
2022-09-26T21:40:49.523Z,67.28
2022-09-26T21:43:19.670Z,67.42
2022-09-26T21:45:46.771Z,67.45
2022-09-26T21:48:14.861Z,67.49
2022-09-26T21:50:46.869Z,67.65
2022-09-26T21:53:19.339Z,67.65
2022-09-26T21:55:52.339Z,67.47
2022-09-26T21:58:24.390Z,67.55
2022-09-26T22:00:50.977Z,67.53
2022-09-26T22:03:17.938Z,67.54
2022-09-26T22:05:44.406Z,67.61
2022-09-26T22:08:11.087Z,67.77
2022-09-26T22:10:37.566Z,67.54
2022-09-26T22:13:04.605Z,67.63
2022-09-26T22:15:31.149Z,67.55
2022-09-26T22:17:57.788Z,67.66
2022-09-26T22:20:24.553Z,67.73
2022-09-26T22:22:50.997Z,67.71
2022-09-26T22:25:17.670Z,67.75
2022-09-26T22:27:44.151Z,67.76
2022-09-26T22:30:11.410Z,67.84
2022-09-26T22:32:37.959Z,67.59
2022-09-26T22:35:05.034Z,67.74
2022-09-26T22:37:31.682Z,67.71
2022-09-26T22:39:58.653Z,67.77
2022-09-26T22:42:25.190Z,67.69
2022-09-26T22:44:51.631Z,67.88
2022-09-26T22:47:18.157Z,67.81
2022-09-26T22:49:44.603Z,67.83
2022-09-26T22:52:11.155Z,67.83
2022-09-26T22:54:37.686Z,67.92
2022-09-26T22:57:04.334Z,67.92
2022-09-26T22:59:30.797Z,67.96
2022-09-26T23:01:57.290Z,67.89
2022-09-26T23:04:24.081Z,67.99
2022-09-26T23:06:50.585Z,68.11
2022-09-26T23:09:17.092Z,68.07
2022-09-26T23:11:43.594Z,67.97
2022-09-26T23:14:10.074Z,67.95
2022-09-26T23:16:36.698Z,67.85
2022-09-26T23:19:03.398Z,68.02
2022-09-26T23:21:29.918Z,68.09
2022-09-26T23:24:00.526Z,68.15
2022-09-26T23:26:31.186Z,67.98
2022-09-26T23:28:59.530Z,68.04
2022-09-26T23:31:27.628Z,68.21
2022-09-26T23:33:54.983Z,68.04
2022-09-26T23:36:21.989Z,68.08
2022-09-26T23:38:48.536Z,67.90
2022-09-26T23:41:17.963Z,68.16
2022-09-26T23:43:46.336Z,67.97
2022-09-26T23:46:13.010Z,68.14
2022-09-26T23:48:39.731Z,68.25
2022-09-26T23:51:06.499Z,68.15
2022-09-26T23:53:33.596Z,68.26
2022-09-26T23:56:17.916Z,68.20
2022-09-26T23:58:44.520Z,68.30
